Time;durP1;ratioP1;P1;durP2;ratioP2;P2;SDS_P1;SDS_P2;PMS_P1;PMS_P2;Temp;Humidity;BMP_temperature;BMP_pressure;BME280_temperature;BME280_humidity;BME280_pressure;Samples;Min_cycle;Max_cycle;Signal;HPM_P1;HPM_P2
2020/12/01 00:01:03;;;;;;;36.13;20.57;;;;;;;;;;5096446;28;20467;-74
2020/12/01 00:03:31;;;;;;;28.60;18.70;;;;;;;;;;5096722;28;20535;-74
2020/12/01 00:05:59;;;;;;;30.50;19.00;;;;;;;;;;5097117;28;20463;-73
2020/12/01 00:08:27;;;;;;;37.40;21.20;;;;;;;;;;5096821;28;20458;-73
2020/12/01 00:10:55;;;;;;;30.30;17.97;;;;;;;;;;5096313;28;20464;-73
2020/12/01 00:13:24;;;;;;;34.40;21.10;;;;;;;;;;5096547;28;20491;-74
2020/12/01 00:15:51;;;;;;;30.30;18.83;;;;;;;;;;5096648;28;20444;-73
2020/12/01 00:18:18;;;;;;;28.67;18.80;;;;;;;;;;5096543;28;20448;-73
2020/12/01 00:20:46;;;;;;;29.80;18.40;;;;;;;;;;5096712;28;20478;-73
2020/12/01 00:23:13;;;;;;;27.53;17.30;;;;;;;;;;5096465;28;20444;-73
2020/12/01 00:25:42;;;;;;;32.27;21.47;;;;;;;;;;5096311;28;20468;-73
2020/12/01 00:28:11;;;;;;;31.87;19.83;;;;;;;;;;5095838;28;20444;-73
2020/12/01 00:30:40;;;;;;;27.57;19.30;;;;;;;;;;5095087;28;20460;-73
2020/12/01 00:33:08;;;;;;;30.10;20.37;;;;;;;;;;5095903;28;20712;-73
2020/12/01 00:35:35;;;;;;;33.27;19.37;;;;;;;;;;5098929;28;20520;-73
2020/12/01 00:38:02;;;;;;;35.03;18.30;;;;;;;;;;5099772;28;20444;-74
2020/12/01 00:40:30;;;;;;;28.97;18.50;;;;;;;;;;5099753;28;20463;-73
2020/12/01 00:42:58;;;;;;;29.10;18.27;;;;;;;;;;5099737;28;20447;-73
2020/12/01 00:45:25;;;;;;;32.23;20.30;;;;;;;;;;5100042;28;20452;-73
2020/12/01 00:47:53;;;;;;;33.67;19.10;;;;;;;;;;5099742;28;20440;-73
2020/12/01 00:50:22;;;;;;;25.43;17.23;;;;;;;;;;5099018;28;20467;-73
2020/12/01 00:52:49;;;;;;;25.70;17.37;;;;;;;;;;5099396;28;20481;-74
2020/12/01 00:55:17;;;;;;;29.27;18.77;;;;;;;;;;5099765;28;20491;-73
2020/12/01 00:57:44;;;;;;;31.77;20.13;;;;;;;;;;5099995;28;20443;-74
2020/12/01 01:00:15;;;;;;;31.40;19.43;;;;;;;;;;5099807;28;20737;-74
2020/12/01 01:02:42;;;;;;;27.80;18.80;;;;;;;;;;5100419;28;20456;-73
2020/12/01 01:05:10;;;;;;;28.37;20.17;;;;;;;;;;5099125;28;20460;-73
2020/12/01 01:07:37;;;;;;;29.83;19.17;;;;;;;;;;5100516;28;20447;-73
2020/12/01 01:10:04;;;;;;;28.60;18.37;;;;;;;;;;5100321;28;20816;-73
2020/12/01 01:12:34;;;;;;;32.90;19.67;;;;;;;;;;5099179;28;20524;-73
2020/12/01 01:15:02;;;;;;;29.17;18.97;;;;;;;;;;5100806;28;20903;-73
2020/12/01 01:17:30;;;;;;;27.70;18.70;;;;;;;;;;5099281;28;20454;-74
2020/12/01 01:19:57;;;;;;;30.47;18.67;;;;;;;;;;5098031;28;20482;-73
2020/12/01 01:22:25;;;;;;;31.93;20.23;;;;;;;;;;5099330;28;20493;-73
2020/12/01 01:24:52;;;;;;;33.23;19.30;;;;;;;;;;5099083;28;20730;-73
2020/12/01 01:27:20;;;;;;;30.10;18.23;;;;;;;;;;5099739;28;20518;-73
2020/12/01 01:29:47;;;;;;;32.63;20.33;;;;;;;;;;5099443;28;20527;-73
2020/12/01 01:32:16;;;;;;;31.00;19.50;;;;;;;;;;5099145;28;20460;-73
2020/12/01 01:34:45;;;;;;;27.50;17.60;;;;;;;;;;5099166;28;20487;-73
2020/12/01 01:37:12;;;;;;;32.27;19.57;;;;;;;;;;5099407;28;20456;-73
2020/12/01 01:39:40;;;;;;;29.03;15.60;;;;;;;;;;5098980;28;20750;-73
2020/12/01 01:42:08;;;;;;;32.23;20.03;;;;;;;;;;5099235;28;20467;-74
2020/12/01 01:44:35;;;;;;;32.60;20.23;;;;;;;;;;5099318;28;20463;-73
2020/12/01 01:47:06;;;;;;;27.37;18.20;;;;;;;;;;5099432;28;20490;-74
2020/12/01 01:49:36;;;;;;;32.90;18.57;;;;;;;;;;5099091;28;20829;-73
2020/12/01 01:52:06;;;;;;;29.50;18.43;;;;;;;;;;5099131;28;20554;-73
2020/12/01 01:54:38;;;;;;;27.77;19.20;;;;;;;;;;5098776;28;20536;-74
2020/12/01 01:57:07;;;;;;;27.70;18.50;;;;;;;;;;5098834;28;20448;-73
2020/12/01 01:59:35;;;;;;;32.23;20.13;;;;;;;;;;5098671;28;20448;-73
2020/12/01 02:02:02;;;;;;;34.53;21.33;;;;;;;;;;5098635;28;20456;-73
2020/12/01 02:04:31;;;;;;;35.27;21.40;;;;;;;;;;5098302;28;20440;-72
2020/12/01 02:07:01;;;;;;;35.73;22.33;;;;;;;;;;5098834;28;20460;-73
2020/12/01 02:09:30;;;;;;;35.80;20.17;;;;;;;;;;5099032;28;20546;-73
2020/12/01 02:11:58;;;;;;;29.07;20.60;;;;;;;;;;5098230;28;20736;-73
2020/12/01 02:14:29;;;;;;;29.83;19.13;;;;;;;;;;5098718;28;20549;-73
2020/12/01 02:16:58;;;;;;;35.97;21.70;;;;;;;;;;5098708;28;20521;-73
2020/12/01 02:19:27;;;;;;;36.93;23.67;;;;;;;;;;5098369;28;20748;-73
2020/12/01 02:21:55;;;;;;;33.30;22.03;;;;;;;;;;5098504;28;20551;-74
2020/12/01 02:24:23;;;;;;;34.40;19.80;;;;;;;;;;5097703;28;20518;-73
2020/12/01 02:26:54;;;;;;;30.93;20.47;;;;;;;;;;5098100;28;20546;-73
2020/12/01 02:29:22;;;;;;;32.53;20.27;;;;;;;;;;5097741;28;20527;-73
2020/12/01 02:31:50;;;;;;;33.57;20.17;;;;;;;;;;5097070;28;20456;-73
2020/12/01 02:34:33;;;;;;;37.33;24.33;;;;;;;;;;5097394;28;20571;-73
2020/12/01 02:37:01;;;;;;;34.53;22.23;;;;;;;;;;5096881;28;20484;-73
2020/12/01 02:39:30;;;;;;;36.17;21.70;;;;;;;;;;5096928;28;20448;-74
2020/12/01 02:42:00;;;;;;;41.07;24.07;;;;;;;;;;5097593;28;20730;-74
2020/12/01 02:44:27;;;;;;;32.53;20.03;;;;;;;;;;5097681;28;20448;-73
2020/12/01 02:46:57;;;;;;;34.37;21.57;;;;;;;;;;5097414;28;20460;-74
2020/12/01 02:49:24;;;;;;;37.20;21.93;;;;;;;;;;5097557;28;20458;-73
2020/12/01 02:51:51;;;;;;;35.37;22.37;;;;;;;;;;5097890;28;20883;-73
2020/12/01 02:54:19;;;;;;;36.60;23.00;;;;;;;;;;5097616;28;20487;-73
2020/12/01 02:56:48;;;;;;;38.40;19.87;;;;;;;;;;5096227;28;20452;-73
2020/12/01 02:59:16;;;;;;;46.17;23.97;;;;;;;;;;5097381;28;20436;-73
2020/12/01 03:01:44;;;;;;;37.80;23.27;;;;;;;;;;5096981;28;20456;-73
2020/12/01 03:04:11;;;;;;;34.63;21.97;;;;;;;;;;5097943;28;20448;-74
2020/12/01 03:06:38;;;;;;;36.47;23.57;;;;;;;;;;5097560;28;20864;-73
2020/12/01 03:09:06;;;;;;;33.10;21.10;;;;;;;;;;5097584;28;20451;-72
2020/12/01 03:11:36;;;;;;;36.10;22.50;;;;;;;;;;5097625;28;20464;-73
2020/12/01 03:14:04;;;;;;;38.43;22.87;;;;;;;;;;5097248;28;20515;-73
2020/12/01 03:16:37;;;;;;;32.80;22.10;;;;;;;;;;5096931;28;20559;-73
2020/12/01 03:19:04;;;;;;;42.97;26.10;;;;;;;;;;5097040;28;20440;-73
2020/12/01 03:21:32;;;;;;;37.00;22.77;;;;;;;;;;5097323;28;20495;-73
2020/12/01 03:23:59;;;;;;;42.43;25.10;;;;;;;;;;5097073;28;20475;-73
2020/12/01 03:26:26;;;;;;;37.63;25.30;;;;;;;;;;5096935;28;20727;-73
2020/12/01 03:28:54;;;;;;;35.23;23.13;;;;;;;;;;5097225;28;20734;-73
2020/12/01 03:31:22;;;;;;;36.00;23.93;;;;;;;;;;5097448;28;20463;-73
2020/12/01 03:33:51;;;;;;;37.30;23.53;;;;;;;;;;5096926;28;20573;-73
2020/12/01 03:36:19;;;;;;;39.23;23.50;;;;;;;;;;5097069;28;20448;-73
2020/12/01 03:38:46;;;;;;;36.47;22.87;;;;;;;;;;5097169;28;20440;-73
2020/12/01 03:41:14;;;;;;;38.03;23.10;;;;;;;;;;5096906;28;20460;-73
2020/12/01 03:43:44;;;;;;;36.37;22.83;;;;;;;;;;5097078;28;20444;-73
2020/12/01 03:46:13;;;;;;;37.00;21.60;;;;;;;;;;5096527;28;20456;-73
2020/12/01 03:48:40;;;;;;;35.53;22.00;;;;;;;;;;5097034;28;20444;-73
2020/12/01 03:51:09;;;;;;;36.00;22.40;;;;;;;;;;5096678;28;20460;-72
2020/12/01 03:53:36;;;;;;;36.50;22.20;;;;;;;;;;5096461;28;20471;-73
2020/12/01 03:56:04;;;;;;;32.90;22.40;;;;;;;;;;5096619;28;20482;-74
2020/12/01 03:58:31;;;;;;;36.57;22.20;;;;;;;;;;5097086;28;20888;-73
2020/12/01 04:00:59;;;;;;;36.10;21.53;;;;;;;;;;5096723;28;20529;-73
2020/12/01 04:03:26;;;;;;;38.27;23.40;;;;;;;;;;5097087;28;20449;-73
2020/12/01 04:05:53;;;;;;;35.43;23.93;;;;;;;;;;5095989;28;20467;-73
2020/12/01 04:08:29;;;;;;;36.13;21.43;;;;;;;;;;5094762;28;20463;-74
2020/12/01 04:11:00;;;;;;;40.40;25.40;;;;;;;;;;5100533;28;20458;-74
2020/12/01 04:13:28;;;;;;;33.17;20.23;;;;;;;;;;5100246;28;20529;-73
2020/12/01 04:15:56;;;;;;;38.63;23.33;;;;;;;;;;5100787;28;20484;-74
2020/12/01 04:18:23;;;;;;;41.60;26.20;;;;;;;;;;5100427;28;20440;-73
2020/12/01 04:20:51;;;;;;;38.10;22.77;;;;;;;;;;5100147;28;20523;-73
2020/12/01 04:23:18;;;;;;;38.30;23.90;;;;;;;;;;5100708;28;20469;-73
2020/12/01 04:25:46;;;;;;;41.17;22.60;;;;;;;;;;5100489;28;20446;-73
2020/12/01 04:28:13;;;;;;;37.07;21.90;;;;;;;;;;5100047;28;20451;-73
2020/12/01 04:30:45;;;;;;;36.77;23.47;;;;;;;;;;5100709;28;20734;-72
2020/12/01 04:33:15;;;;;;;42.00;25.13;;;;;;;;;;5099999;28;20895;-73
2020/12/01 04:35:48;;;;;;;32.80;20.97;;;;;;;;;;5099574;28;20476;-73
2020/12/01 04:38:22;;;;;;;36.87;23.60;;;;;;;;;;5100722;28;20444;-73
2020/12/01 04:40:51;;;;;;;38.50;22.87;;;;;;;;;;5100261;28;20527;-73
2020/12/01 04:43:28;;;;;;;38.67;24.40;;;;;;;;;;5100216;28;20451;-72
2020/12/01 04:45:56;;;;;;;36.37;22.80;;;;;;;;;;5100337;28;20545;-72
2020/12/01 04:48:29;;;;;;;37.43;23.00;;;;;;;;;;5099867;28;20448;-72
2020/12/01 04:51:01;;;;;;;41.67;23.73;;;;;;;;;;5100039;28;20454;-72
2020/12/01 04:53:56;;;;;;;38.70;23.60;;;;;;;;;;5100486;28;20458;-72
2020/12/01 04:56:38;;;;;;;36.90;22.80;;;;;;;;;;5099518;28;20462;-74
2020/12/01 04:59:23;;;;;;;37.40;23.17;;;;;;;;;;5099701;28;20455;-73
2020/12/01 05:02:17;;;;;;;33.63;21.17;;;;;;;;;;5100553;28;20463;-74
2020/12/01 05:04:49;;;;;;;34.23;23.10;;;;;;;;;;5064113;28;20440;-74
2020/12/01 05:07:25;;;;;;;36.43;21.67;;;;;;;;;;5100121;28;20743;-72
2020/12/01 05:09:57;;;;;;;37.40;21.20;;;;;;;;;;5099743;28;20443;-73
2020/12/01 05:12:29;;;;;;;38.10;20.97;;;;;;;;;;5099423;28;20848;-73
2020/12/01 05:15:00;;;;;;;31.40;21.17;;;;;;;;;;5099298;28;20775;-73
2020/12/01 05:17:42;;;;;;;32.03;19.90;;;;;;;;;;5099144;28;20550;-73
2020/12/01 05:20:09;;;;;;;31.27;21.00;;;;;;;;;;5082208;28;20462;-73
2020/12/01 05:22:40;;;;;;;34.70;22.30;;;;;;;;;;5098695;28;20437;-73
2020/12/01 05:25:18;;;;;;;36.43;21.07;;;;;;;;;;5098586;28;20452;-73
2020/12/01 05:27:46;;;;;;;36.30;19.93;;;;;;;;;;5098968;28;20448;-73
2020/12/01 05:30:15;;;;;;;35.20;21.13;;;;;;;;;;5099152;28;20926;-73
2020/12/01 05:32:44;;;;;;;33.30;19.33;;;;;;;;;;5098882;28;20841;-73
2020/12/01 05:35:16;;;;;;;34.40;20.03;;;;;;;;;;5099355;28;20907;-73
2020/12/01 05:37:51;;;;;;;36.87;21.03;;;;;;;;;;5099370;28;20517;-73
2020/12/01 05:40:19;;;;;;;35.80;23.40;;;;;;;;;;5099219;28;20452;-73
2020/12/01 05:42:48;;;;;;;33.50;19.60;;;;;;;;;;5098690;28;20444;-73
2020/12/01 05:45:26;;;;;;;38.60;22.67;;;;;;;;;;5098763;28;20531;-73
2020/12/01 05:47:56;;;;;;;38.73;21.83;;;;;;;;;;5097978;28;20526;-73
2020/12/01 05:50:24;;;;;;;36.73;21.17;;;;;;;;;;5098468;28;20460;-73
2020/12/01 05:52:58;;;;;;;32.67;21.40;;;;;;;;;;5098011;28;20525;-73
2020/12/01 05:55:26;;;;;;;31.47;18.97;;;;;;;;;;5098320;28;20580;-73
2020/12/01 05:57:58;;;;;;;38.83;20.90;;;;;;;;;;5098127;28;20455;-73
2020/12/01 06:00:33;;;;;;;31.77;20.10;;;;;;;;;;5098078;28;20448;-73
2020/12/01 06:03:08;;;;;;;29.97;19.37;;;;;;;;;;5097497;28;20448;-73
2020/12/01 06:05:37;;;;;;;35.40;21.70;;;;;;;;;;5097462;28;20463;-73
2020/12/01 06:08:06;;;;;;;35.13;21.70;;;;;;;;;;5087838;28;20456;-73
2020/12/01 06:10:35;;;;;;;34.70;21.00;;;;;;;;;;5077252;28;20484;-73
2020/12/01 06:13:11;;;;;;;33.03;20.50;;;;;;;;;;5077095;28;20456;-72
2020/12/01 06:15:41;;;;;;;37.20;20.43;;;;;;;;;;5075483;28;20514;-73
2020/12/01 06:18:13;;;;;;;32.47;19.90;;;;;;;;;;5075476;28;20456;-72
2020/12/01 06:20:44;;;;;;;33.90;19.40;;;;;;;;;;5076397;28;20468;-72
2020/12/01 06:23:38;;;;;;;33.13;20.47;;;;;;;;;;5076505;28;20514;-73
2020/12/01 06:26:19;;;;;;;35.60;20.73;;;;;;;;;;5073770;28;20850;-72
2020/12/01 06:29:05;;;;;;;34.50;20.50;;;;;;;;;;5074188;28;20449;-73
2020/12/01 06:31:45;;;;;;;34.70;21.10;;;;;;;;;;5074102;28;20540;-72
2020/12/01 06:34:27;;;;;;;33.67;21.30;;;;;;;;;;5073703;28;20487;-73
2020/12/01 06:37:19;;;;;;;36.30;20.77;;;;;;;;;;5073944;28;20448;-73
2020/12/01 06:39:54;;;;;;;36.70;21.50;;;;;;;;;;5074169;28;20448;-73
2020/12/01 06:42:23;;;;;;;38.07;23.00;;;;;;;;;;5072927;28;20809;-73
2020/12/01 06:44:56;;;;;;;35.40;22.50;;;;;;;;;;5073266;28;20449;-73
2020/12/01 06:47:26;;;;;;;40.20;23.77;;;;;;;;;;5075070;28;20534;-73
2020/12/01 06:49:55;;;;;;;36.20;23.13;;;;;;;;;;5075003;28;20459;-73
2020/12/01 06:52:23;;;;;;;40.13;23.30;;;;;;;;;;5074392;28;20543;-73
2020/12/01 06:54:52;;;;;;;40.93;23.73;;;;;;;;;;5074376;28;20502;-74
2020/12/01 06:57:25;;;;;;;37.20;22.57;;;;;;;;;;5074615;28;20460;-74
2020/12/01 06:59:52;;;;;;;36.93;22.27;;;;;;;;;;5074247;28;20441;-73
2020/12/01 07:02:24;;;;;;;41.87;23.07;;;;;;;;;;5084294;28;20444;-73
2020/12/01 07:05:03;;;;;;;39.20;22.17;;;;;;;;;;5094495;28;21088;-73
2020/12/01 07:07:31;;;;;;;39.97;25.50;;;;;;;;;;5094204;28;20857;-73
2020/12/01 07:09:59;;;;;;;39.07;24.50;;;;;;;;;;5092321;28;20465;-73
2020/12/01 07:12:38;;;;;;;38.53;22.37;;;;;;;;;;5093172;28;20742;-73
2020/12/01 07:15:13;;;;;;;43.43;24.53;;;;;;;;;;5093480;28;20475;-75
2020/12/01 07:17:48;;;;;;;40.13;24.10;;;;;;;;;;5074567;28;20444;-74
2020/12/01 07:20:30;;;;;;;40.47;23.13;;;;;;;;;;5089266;28;20455;-73
2020/12/01 07:23:01;;;;;;;37.73;22.10;;;;;;;;;;5094590;28;20459;-73
2020/12/01 07:25:32;;;;;;;41.47;24.20;;;;;;;;;;5094035;28;20463;-73
2020/12/01 07:28:08;;;;;;;42.10;24.47;;;;;;;;;;5094192;28;20546;-73
2020/12/01 07:30:48;;;;;;;38.27;22.40;;;;;;;;;;5093244;28;20455;-73
2020/12/01 07:33:19;;;;;;;40.47;23.30;;;;;;;;;;5075017;28;20786;-73
2020/12/01 07:35:50;;;;;;;41.43;22.97;;;;;;;;;;5074870;28;20485;-73
2020/12/01 07:38:22;;;;;;;39.30;22.90;;;;;;;;;;5075867;28;20716;-73
2020/12/01 07:40:51;;;;;;;40.93;25.50;;;;;;;;;;5075028;28;20552;-73
2020/12/01 07:43:19;;;;;;;38.63;23.57;;;;;;;;;;5074572;28;20445;-73
2020/12/01 07:45:47;;;;;;;41.40;23.67;;;;;;;;;;5075889;28;20471;-73
2020/12/01 07:48:18;;;;;;;41.70;23.37;;;;;;;;;;5074500;28;20455;-73
2020/12/01 07:50:45;;;;;;;36.00;22.90;;;;;;;;;;5074686;28;20466;-74
2020/12/01 07:53:16;;;;;;;38.63;23.60;;;;;;;;;;5094336;28;20462;-73
2020/12/01 07:55:50;;;;;;;38.57;22.30;;;;;;;;;;5094280;28;20484;-73
2020/12/01 07:58:20;;;;;;;44.43;26.17;;;;;;;;;;5094730;28;20447;-74
2020/12/01 08:00:54;;;;;;;39.40;22.60;;;;;;;;;;5093795;28;20459;-73
2020/12/01 08:03:25;;;;;;;39.53;23.40;;;;;;;;;;5094494;28;20527;-73
2020/12/01 08:05:52;;;;;;;38.90;23.70;;;;;;;;;;5093493;28;20468;-73
2020/12/01 08:08:20;;;;;;;43.43;24.37;;;;;;;;;;5094136;28;20452;-72
2020/12/01 08:10:49;;;;;;;46.90;26.00;;;;;;;;;;5079482;28;20456;-73
2020/12/01 08:13:17;;;;;;;41.60;27.50;;;;;;;;;;5095224;28;20448;-73
2020/12/01 08:15:46;;;;;;;44.77;25.27;;;;;;;;;;5093775;28;20495;-73
2020/12/01 08:18:16;;;;;;;42.30;23.67;;;;;;;;;;5094973;28;20451;-73
2020/12/01 08:20:44;;;;;;;40.27;25.30;;;;;;;;;;5095389;28;20456;-73
2020/12/01 08:23:16;;;;;;;39.83;24.33;;;;;;;;;;5095843;28;20543;-73
2020/12/01 08:25:44;;;;;;;43.27;24.50;;;;;;;;;;5095667;28;20738;-73
2020/12/01 08:28:29;;;;;;;39.50;24.97;;;;;;;;;;5095459;28;20467;-73
2020/12/01 08:30:59;;;;;;;41.90;24.97;;;;;;;;;;5095451;28;20441;-73
2020/12/01 08:36:25;;;;;;;37.43;24.40;;;;;;;;;;5092515;28;20461;-74
2020/12/01 08:39:01;;;;;;;46.13;24.90;;;;;;;;;;5095478;28;20479;-74
2020/12/01 08:41:41;;;;;;;43.27;24.13;;;;;;;;;;5094901;28;20474;-73
2020/12/01 08:44:15;;;;;;;40.60;22.67;;;;;;;;;;5093235;28;20468;-74
2020/12/01 08:46:43;;;;;;;48.30;25.50;;;;;;;;;;5094723;28;20451;-77
2020/12/01 08:49:23;;;;;;;44.60;27.00;;;;;;;;;;5094634;28;20759;-73
2020/12/01 08:51:56;;;;;;;47.60;26.97;;;;;;;;;;5094898;28;20540;-76
2020/12/01 08:54:24;;;;;;;46.17;25.83;;;;;;;;;;5096424;28;20637;-72
2020/12/01 08:57:01;;;;;;;43.27;24.50;;;;;;;;;;5087795;28;20547;-72
2020/12/01 08:59:30;;;;;;;39.37;23.60;;;;;;;;;;5097916;28;20860;-72
2020/12/01 09:02:04;;;;;;;45.80;26.13;;;;;;;;;;5098101;28;20536;-72
2020/12/01 09:04:39;;;;;;;41.73;25.10;;;;;;;;;;5096966;28;20471;-72
2020/12/01 09:07:08;;;;;;;42.37;23.57;;;;;;;;;;5097472;28;20740;-72
2020/12/01 09:09:43;;;;;;;40.43;24.20;;;;;;;;;;5098979;28;20452;-73
2020/12/01 09:12:36;;;;;;;43.33;24.80;;;;;;;;;;5097772;28;20775;-73
2020/12/01 09:15:18;;;;;;;38.70;23.00;;;;;;;;;;5099238;28;20483;-73
2020/12/01 09:18:01;;;;;;;45.03;25.20;;;;;;;;;;5098336;28;20452;-72
2020/12/01 09:20:57;;;;;;;39.90;21.70;;;;;;;;;;5089155;28;20861;-72
2020/12/01 09:23:32;;;;;;;38.93;22.77;;;;;;;;;;5096577;28;20518;-72
2020/12/01 09:26:15;;;;;;;39.10;24.87;;;;;;;;;;5097989;28;20447;-72
2020/12/01 09:28:47;;;;;;;46.87;27.17;;;;;;;;;;5097540;28;20868;-72
2020/12/01 09:31:14;;;;;;;38.70;25.20;;;;;;;;;;5096883;28;20486;-72
2020/12/01 09:33:46;;;;;;;38.23;23.30;;;;;;;;;;5097192;28;20875;-72
2020/12/01 09:36:17;;;;;;;40.30;24.77;;;;;;;;;;5097537;28;20770;-71
2020/12/01 09:38:45;;;;;;;42.80;23.30;;;;;;;;;;5096767;28;20482;-73
2020/12/01 09:41:14;;;;;;;40.30;22.90;;;;;;;;;;5099203;28;20452;-73
2020/12/01 09:44:01;;;;;;;41.00;24.27;;;;;;;;;;5098538;28;20448;-74
2020/12/01 09:46:33;;;;;;;40.50;22.53;;;;;;;;;;5097101;28;20881;-72
2020/12/01 09:49:02;;;;;;;35.80;22.87;;;;;;;;;;5096205;28;20491;-72
2020/12/01 09:51:32;;;;;;;34.73;21.30;;;;;;;;;;5098669;28;20440;-72
2020/12/01 09:54:17;;;;;;;44.53;24.10;;;;;;;;;;5098543;28;20728;-73
2020/12/01 09:56:52;;;;;;;41.10;23.40;;;;;;;;;;5098584;28;20464;-74
2020/12/01 09:59:40;;;;;;;35.70;22.87;;;;;;;;;;5098506;28;20448;-72
2020/12/01 10:13:33;;;;;;;31.23;21.00;;;;;;;;;;5094690;28;20583;-72
2020/12/01 10:27:31;;;;;;;38.63;20.70;;;;;;;;;;5069722;28;20598;-73
2020/12/01 10:35:45;;;;;;;37.73;22.10;;;;;;;;;;5032428;28;20463;-73
2020/12/01 10:38:13;;;;;;;36.87;21.40;;;;;;;;;;5032537;28;20494;-73
2020/12/01 10:40:42;;;;;;;36.33;23.30;;;;;;;;;;5061994;28;20521;-72
2020/12/01 10:43:24;;;;;;;41.83;23.13;;;;;;;;;;5091719;28;20456;-73
2020/12/01 10:45:55;;;;;;;33.87;22.07;;;;;;;;;;5096315;28;20432;-73
2020/12/01 10:48:24;;;;;;;36.33;21.30;;;;;;;;;;5092875;28;20728;-74
2020/12/01 10:50:52;;;;;;;45.40;23.13;;;;;;;;;;5091007;28;20462;-72
2020/12/01 10:53:19;;;;;;;38.30;22.70;;;;;;;;;;5093185;28;20574;-72
2020/12/01 10:55:49;;;;;;;32.67;21.20;;;;;;;;;;5095529;28;20715;-72
2020/12/01 10:58:17;;;;;;;37.90;19.93;;;;;;;;;;5093611;28;20554;-72
2020/12/01 11:00:44;;;;;;;33.47;21.37;;;;;;;;;;5096821;28;20452;-72
2020/12/01 11:05:53;;;;;;;34.40;20.10;;;;;;;;;;5087457;28;20440;-72
2020/12/01 11:08:23;;;;;;;30.97;20.23;;;;;;;;;;5095712;28;20448;-73
2020/12/01 11:10:52;;;;;;;36.10;20.80;;;;;;;;;;5077161;28;20477;-72
2020/12/01 11:13:20;;;;;;;33.27;19.00;;;;;;;;;;5090378;28;20550;-72
2020/12/01 11:15:47;;;;;;;31.33;18.60;;;;;;;;;;5094230;28;20486;-73
2020/12/01 11:18:14;;;;;;;31.27;19.37;;;;;;;;;;5089256;28;20471;-72
2020/12/01 11:20:44;;;;;;;32.73;18.47;;;;;;;;;;5093481;28;20767;-72
2020/12/01 11:23:13;;;;;;;28.60;18.30;;;;;;;;;;5094465;28;20483;-73
2020/12/01 11:25:50;;;;;;;31.07;18.80;;;;;;;;;;5087276;28;20446;-72
2020/12/01 11:28:38;;;;;;;29.50;18.43;;;;;;;;;;5084914;28;20495;-73
2020/12/01 11:34:08;;;;;;;25.70;16.83;;;;;;;;;;5093023;28;20440;-74
2020/12/01 11:36:40;;;;;;;29.83;17.07;;;;;;;;;;5094587;28;20476;-71
2020/12/01 11:39:08;;;;;;;30.60;19.47;;;;;;;;;;5094809;28;21085;-72
2020/12/01 11:41:35;;;;;;;28.73;19.03;;;;;;;;;;5091284;28;20536;-72
2020/12/01 11:44:04;;;;;;;30.43;19.30;;;;;;;;;;5080778;28;20467;-72
2020/12/01 11:46:31;;;;;;;28.10;17.07;;;;;;;;;;5095137;28;20448;-71
2020/12/01 11:49:01;;;;;;;37.50;20.60;;;;;;;;;;5094306;28;20543;-71
2020/12/01 11:51:29;;;;;;;25.07;16.90;;;;;;;;;;5094294;28;20959;-73
2020/12/01 11:54:02;;;;;;;30.43;18.10;;;;;;;;;;5094270;28;20452;-72
2020/12/01 11:56:29;;;;;;;29.00;17.90;;;;;;;;;;5093998;28;20568;-72
2020/12/01 11:58:57;;;;;;;28.57;17.17;;;;;;;;;;5080103;28;20460;-72
2020/12/01 12:01:32;;;;;;;24.37;16.70;;;;;;;;;;5077949;28;20527;-73
2020/12/01 12:04:02;;;;;;;26.80;17.40;;;;;;;;;;5074246;28;20460;-72
2020/12/01 12:06:38;;;;;;;22.80;14.70;;;;;;;;;;5078714;28;20467;-73
2020/12/01 12:09:15;;;;;;;23.20;14.13;;;;;;;;;;5088645;28;20809;-72
2020/12/01 12:11:42;;;;;;;24.90;17.07;;;;;;;;;;5088201;28;20471;-72
2020/12/01 12:14:13;;;;;;;23.67;14.50;;;;;;;;;;5086584;28;20498;-73
2020/12/01 12:16:41;;;;;;;25.97;14.40;;;;;;;;;;5088531;28;20471;-72
2020/12/01 12:19:09;;;;;;;19.47;14.13;;;;;;;;;;5093972;28;20848;-72
2020/12/01 12:21:39;;;;;;;21.93;14.87;;;;;;;;;;5094470;28;20474;-72
2020/12/01 12:24:06;;;;;;;23.60;14.10;;;;;;;;;;5093798;28;20457;-72
2020/12/01 12:26:37;;;;;;;22.77;14.23;;;;;;;;;;5094388;28;20440;-72
2020/12/01 12:29:04;;;;;;;26.20;14.80;;;;;;;;;;5093496;28;20444;-73
2020/12/01 12:31:34;;;;;;;23.50;14.47;;;;;;;;;;5097173;28;20452;-72
2020/12/01 12:34:06;;;;;;;27.20;15.30;;;;;;;;;;5081707;28;20602;-72
2020/12/01 12:36:33;;;;;;;22.20;14.03;;;;;;;;;;5090789;28;20510;-73
2020/12/01 12:39:01;;;;;;;21.83;14.63;;;;;;;;;;5093875;28;20554;-72
2020/12/01 12:41:28;;;;;;;22.53;15.50;;;;;;;;;;5096533;28;20447;-73
2020/12/01 12:43:59;;;;;;;21.37;15.00;;;;;;;;;;5096950;28;20464;-72
2020/12/01 12:46:28;;;;;;;26.00;16.17;;;;;;;;;;5095210;28;20556;-72
2020/12/01 12:48:56;;;;;;;21.17;14.93;;;;;;;;;;5096941;28;20486;-73
2020/12/01 12:51:24;;;;;;;23.17;15.60;;;;;;;;;;5096379;28;20436;-73
2020/12/01 12:53:55;;;;;;;26.67;15.57;;;;;;;;;;5097581;28;20450;-71
2020/12/01 12:56:25;;;;;;;28.13;15.70;;;;;;;;;;5087111;28;20572;-73
2020/12/01 12:58:59;;;;;;;25.17;15.97;;;;;;;;;;5097737;28;20458;-73
2020/12/01 13:01:29;;;;;;;25.70;15.83;;;;;;;;;;5096844;28;20452;-73
2020/12/01 13:03:56;;;;;;;28.80;16.27;;;;;;;;;;5097504;28;20452;-72
2020/12/01 13:06:25;;;;;;;27.13;17.27;;;;;;;;;;5094828;28;20459;-73
2020/12/01 13:08:52;;;;;;;28.40;18.30;;;;;;;;;;5079638;28;20463;-73
2020/12/01 13:11:23;;;;;;;25.67;15.43;;;;;;;;;;5098263;28;20448;-73
2020/12/01 13:13:50;;;;;;;24.57;18.00;;;;;;;;;;5095932;28;20535;-73
2020/12/01 13:16:18;;;;;;;26.33;15.80;;;;;;;;;;5097614;28;20574;-72
2020/12/01 13:18:46;;;;;;;29.07;16.83;;;;;;;;;;5096733;28;21041;-73
2020/12/01 13:21:14;;;;;;;28.37;17.03;;;;;;;;;;5097160;28;20460;-73
2020/12/01 13:23:46;;;;;;;27.73;16.87;;;;;;;;;;5097925;28;20448;-74
2020/12/01 13:26:19;;;;;;;24.47;16.63;;;;;;;;;;5097950;28;20452;-73
2020/12/01 13:28:46;;;;;;;25.70;16.70;;;;;;;;;;5077557;28;20860;-72
2020/12/01 13:31:14;;;;;;;29.07;17.57;;;;;;;;;;5085113;28;20521;-72
2020/12/01 13:33:44;;;;;;;28.00;19.67;;;;;;;;;;5097288;28;20476;-72
2020/12/01 13:36:12;;;;;;;31.80;17.27;;;;;;;;;;5095866;28;20491;-73
2020/12/01 13:38:48;;;;;;;27.70;18.60;;;;;;;;;;5077331;28;20474;-73
2020/12/01 13:41:16;;;;;;;27.03;16.53;;;;;;;;;;5084017;28;20452;-72
2020/12/01 13:43:44;;;;;;;33.83;20.50;;;;;;;;;;5094333;28;20730;-72
2020/12/01 13:46:15;;;;;;;32.37;20.30;;;;;;;;;;5078114;28;20504;-73
2020/12/01 13:48:46;;;;;;;30.40;19.33;;;;;;;;;;5076831;28;20860;-73
2020/12/01 13:51:14;;;;;;;34.90;20.33;;;;;;;;;;5094221;28;20905;-73
2020/12/01 13:53:42;;;;;;;37.63;21.57;;;;;;;;;;5096303;28;20456;-73
2020/12/01 13:56:10;;;;;;;37.90;22.70;;;;;;;;;;5097405;28;20492;-73
2020/12/01 13:58:38;;;;;;;30.63;18.53;;;;;;;;;;5095647;28;20440;-72
2020/12/01 14:01:06;;;;;;;34.97;20.80;;;;;;;;;;5096035;28;20456;-73
2020/12/01 14:03:47;;;;;;;36.83;20.20;;;;;;;;;;5096419;28;20440;-74
2020/12/01 14:06:18;;;;;;;38.60;19.40;;;;;;;;;;5096596;28;20452;-72
2020/12/01 14:08:55;;;;;;;38.03;19.00;;;;;;;;;;5080538;28;20453;-74
2020/12/01 14:11:26;;;;;;;30.27;18.13;;;;;;;;;;5093287;28;20468;-73
2020/12/01 14:13:55;;;;;;;32.50;19.03;;;;;;;;;;5096277;28;20450;-73
2020/12/01 14:16:23;;;;;;;32.53;18.60;;;;;;;;;;5097271;28;20491;-73
2020/12/01 14:18:53;;;;;;;34.03;19.33;;;;;;;;;;5076469;28;20885;-74
2020/12/01 14:21:37;;;;;;;34.20;18.20;;;;;;;;;;5085318;28;20454;-72
2020/12/01 14:24:25;;;;;;;;;;;;;;;;;;;;;
2020/12/01 14:27:00;;;;;;;34.23;20.40;;;;;;;;;;5094848;28;20464;-73
2020/12/01 14:29:32;;;;;;;35.17;19.27;;;;;;;;;;5089852;28;20766;-73
2020/12/01 14:32:01;;;;;;;32.20;18.07;;;;;;;;;;5093282;28;20456;-74
2020/12/01 14:34:33;;;;;;;34.40;18.20;;;;;;;;;;5095316;28;20478;-74
2020/12/01 14:37:06;;;;;;;32.63;20.53;;;;;;;;;;5093834;28;20476;-73
2020/12/01 14:39:50;;;;;;;33.33;19.30;;;;;;;;;;5089045;28;20457;-73
2020/12/01 14:42:24;;;;;;;36.60;20.53;;;;;;;;;;5073662;28;20518;-73
2020/12/01 14:58:59;;;;;;;31.20;17.53;;;;;;;;;;5150111;27;20461;-73
2020/12/01 15:01:34;;;;;;;35.83;22.43;;;;;;;;;;5151793;27;20871;-73
2020/12/01 15:04:24;;;;;;;33.93;18.90;;;;;;;;;;5145731;27;20541;-73
2020/12/01 15:07:13;;;;;;;31.43;17.97;;;;;;;;;;5131009;28;20713;-74
2020/12/01 15:10:01;;;;;;;33.50;19.80;;;;;;;;;;5145070;27;20461;-74
2020/12/01 15:12:36;;;;;;;29.30;17.43;;;;;;;;;;5143644;27;20450;-73
2020/12/01 15:15:27;;;;;;;;;;;;;;;;;;;;;
2020/12/01 15:18:10;;;;;;;30.77;19.70;;;;;;;;;;5151132;27;20468;-73
2020/12/01 15:20:48;;;;;;;31.93;19.20;;;;;;;;;;5152333;27;20464;-74
2020/12/01 15:23:33;;;;;;;31.07;18.50;;;;;;;;;;5152449;27;20454;-73
2020/12/01 15:26:01;;;;;;;32.50;19.40;;;;;;;;;;5153767;27;20465;-74
2020/12/01 15:28:31;;;;;;;30.93;19.37;;;;;;;;;;5152051;27;20485;-73
2020/12/01 15:30:59;;;;;;;35.60;21.00;;;;;;;;;;5152068;27;20504;-73
2020/12/01 15:33:49;;;;;;;31.20;19.37;;;;;;;;;;5132220;27;20458;-73